sensor_id;sensor_type;location;lat;lon;timestamp;temperature;humidity
47600;DHT22;33323;52.124;6.018;2023-05-29T00:01:52;10.50;99.90
47600;DHT22;33323;52.124;6.018;2023-05-29T00:04:19;10.50;99.90
47600;DHT22;33323;52.124;6.018;2023-05-29T00:06:48;10.40;99.90
47600;DHT22;33323;52.124;6.018;2023-05-29T00:09:15;10.40;99.90
47600;DHT22;33323;52.124;6.018;2023-05-29T00:11:42;10.30;99.90
47600;DHT22;33323;52.124;6.018;2023-05-29T00:14:10;10.30;99.90
47600;DHT22;33323;52.124;6.018;2023-05-29T00:16:40;10.30;99.90
47600;DHT22;33323;52.124;6.018;2023-05-29T00:19:07;10.30;99.90
47600;DHT22;33323;52.124;6.018;2023-05-29T00:21:35;10.30;99.90
47600;DHT22;33323;52.124;6.018;2023-05-29T00:24:02;10.30;99.90
47600;DHT22;33323;52.124;6.018;2023-05-29T00:26:29;10.20;99.90
47600;DHT22;33323;52.124;6.018;2023-05-29T00:28:57;10.20;99.90
47600;DHT22;33323;52.124;6.018;2023-05-29T00:31:24;10.10;99.90
47600;DHT22;33323;52.124;6.018;2023-05-29T00:33:51;10.10;99.90
47600;DHT22;33323;52.124;6.018;2023-05-29T00:36:18;10.10;99.90
47600;DHT22;33323;52.124;6.018;2023-05-29T00:38:45;10.10;99.90
47600;DHT22;33323;52.124;6.018;2023-05-29T00:41:14;10.10;99.90
47600;DHT22;33323;52.124;6.018;2023-05-29T00:43:43;10.10;99.90
47600;DHT22;33323;52.124;6.018;2023-05-29T00:46:12;10.00;99.90
47600;DHT22;33323;52.124;6.018;2023-05-29T00:48:44;10.00;99.90
47600;DHT22;33323;52.124;6.018;2023-05-29T00:51:12;10.00;99.90
47600;DHT22;33323;52.124;6.018;2023-05-29T00:53:40;9.90;99.90
47600;DHT22;33323;52.124;6.018;2023-05-29T00:56:09;9.90;99.90
47600;DHT22;33323;52.124;6.018;2023-05-29T00:58:36;9.90;99.90
47600;DHT22;33323;52.124;6.018;2023-05-29T01:01:04;9.80;99.90
47600;DHT22;33323;52.124;6.018;2023-05-29T01:03:32;9.70;99.90
47600;DHT22;33323;52.124;6.018;2023-05-29T01:06:00;9.80;99.90
47600;DHT22;33323;52.124;6.018;2023-05-29T01:08:27;9.90;99.90
47600;DHT22;33323;52.124;6.018;2023-05-29T01:11:00;9.90;99.90
47600;DHT22;33323;52.124;6.018;2023-05-29T01:13:41;9.90;99.90
47600;DHT22;33323;52.124;6.018;2023-05-29T01:16:33;9.80;99.90
47600;DHT22;33323;52.124;6.018;2023-05-29T01:25:30;9.70;99.90
47600;DHT22;33323;52.124;6.018;2023-05-29T01:28:04;9.60;99.90
47600;DHT22;33323;52.124;6.018;2023-05-29T01:30:33;9.60;99.90
47600;DHT22;33323;52.124;6.018;2023-05-29T01:33:01;9.50;99.90
47600;DHT22;33323;52.124;6.018;2023-05-29T01:35:29;9.60;99.90
47600;DHT22;33323;52.124;6.018;2023-05-29T01:37:56;9.50;99.90
47600;DHT22;33323;52.124;6.018;2023-05-29T01:40:23;9.50;99.90
47600;DHT22;33323;52.124;6.018;2023-05-29T01:42:51;9.50;99.90
47600;DHT22;33323;52.124;6.018;2023-05-29T01:45:20;9.40;99.90
47600;DHT22;33323;52.124;6.018;2023-05-29T01:47:47;9.40;99.90
47600;DHT22;33323;52.124;6.018;2023-05-29T01:50:17;9.30;99.90
47600;DHT22;33323;52.124;6.018;2023-05-29T01:52:45;9.30;99.90
47600;DHT22;33323;52.124;6.018;2023-05-29T01:55:12;9.30;99.90
47600;DHT22;33323;52.124;6.018;2023-05-29T01:57:40;9.30;99.90
47600;DHT22;33323;52.124;6.018;2023-05-29T02:00:09;9.30;99.90
47600;DHT22;33323;52.124;6.018;2023-05-29T02:02:40;9.30;99.90
47600;DHT22;33323;52.124;6.018;2023-05-29T02:05:08;9.20;99.90
47600;DHT22;33323;52.124;6.018;2023-05-29T02:07:35;9.20;99.90
47600;DHT22;33323;52.124;6.018;2023-05-29T02:10:06;9.20;99.90
47600;DHT22;33323;52.124;6.018;2023-05-29T02:12:33;9.30;99.90
47600;DHT22;33323;52.124;6.018;2023-05-29T02:15:00;9.20;99.90
47600;DHT22;33323;52.124;6.018;2023-05-29T02:17:28;9.10;99.90
47600;DHT22;33323;52.124;6.018;2023-05-29T02:19:55;9.00;99.90
47600;DHT22;33323;52.124;6.018;2023-05-29T02:22:22;9.00;99.90
47600;DHT22;33323;52.124;6.018;2023-05-29T02:24:49;9.10;99.90
47600;DHT22;33323;52.124;6.018;2023-05-29T02:27:16;9.00;99.90
47600;DHT22;33323;52.124;6.018;2023-05-29T02:29:43;9.00;99.90
47600;DHT22;33323;52.124;6.018;2023-05-29T02:32:11;9.00;99.90
47600;DHT22;33323;52.124;6.018;2023-05-29T02:34:38;8.90;99.90
47600;DHT22;33323;52.124;6.018;2023-05-29T02:37:05;8.80;99.90
47600;DHT22;33323;52.124;6.018;2023-05-29T02:39:32;8.90;99.90
47600;DHT22;33323;52.124;6.018;2023-05-29T02:41:59;8.80;99.90
47600;DHT22;33323;52.124;6.018;2023-05-29T02:44:26;8.80;99.90
47600;DHT22;33323;52.124;6.018;2023-05-29T02:46:53;8.70;99.90
47600;DHT22;33323;52.124;6.018;2023-05-29T02:49:20;8.80;99.90
47600;DHT22;33323;52.124;6.018;2023-05-29T02:51:47;8.80;99.90
47600;DHT22;33323;52.124;6.018;2023-05-29T02:54:14;8.70;99.90
47600;DHT22;33323;52.124;6.018;2023-05-29T02:56:41;8.70;99.90
47600;DHT22;33323;52.124;6.018;2023-05-29T02:59:08;8.70;99.90
47600;DHT22;33323;52.124;6.018;2023-05-29T03:01:35;8.60;99.90
47600;DHT22;33323;52.124;6.018;2023-05-29T03:04:02;8.60;99.90
47600;DHT22;33323;52.124;6.018;2023-05-29T03:06:30;8.60;99.90
47600;DHT22;33323;52.124;6.018;2023-05-29T03:08:59;8.60;99.90
47600;DHT22;33323;52.124;6.018;2023-05-29T03:11:26;8.50;99.90
47600;DHT22;33323;52.124;6.018;2023-05-29T03:13:53;8.50;99.90
47600;DHT22;33323;52.124;6.018;2023-05-29T03:16:20;8.50;99.90
47600;DHT22;33323;52.124;6.018;2023-05-29T03:18:48;8.50;99.90
47600;DHT22;33323;52.124;6.018;2023-05-29T03:21:18;8.50;99.90
47600;DHT22;33323;52.124;6.018;2023-05-29T03:23:45;8.40;99.90
47600;DHT22;33323;52.124;6.018;2023-05-29T03:26:13;8.40;99.90
47600;DHT22;33323;52.124;6.018;2023-05-29T03:28:42;8.40;99.90
47600;DHT22;33323;52.124;6.018;2023-05-29T03:31:09;8.40;99.90
47600;DHT22;33323;52.124;6.018;2023-05-29T03:33:37;8.40;99.90
47600;DHT22;33323;52.124;6.018;2023-05-29T03:36:18;8.40;99.90
47600;DHT22;33323;52.124;6.018;2023-05-29T03:38:45;8.40;99.90
47600;DHT22;33323;52.124;6.018;2023-05-29T03:41:12;8.40;99.90
47600;DHT22;33323;52.124;6.018;2023-05-29T03:43:39;8.40;99.90
47600;DHT22;33323;52.124;6.018;2023-05-29T03:46:06;8.30;99.90
47600;DHT22;33323;52.124;6.018;2023-05-29T03:48:35;8.30;99.90
47600;DHT22;33323;52.124;6.018;2023-05-29T03:51:02;8.30;99.90
47600;DHT22;33323;52.124;6.018;2023-05-29T03:53:34;8.40;99.90
47600;DHT22;33323;52.124;6.018;2023-05-29T03:56:01;8.50;99.90
47600;DHT22;33323;52.124;6.018;2023-05-29T03:58:28;8.40;99.90
47600;DHT22;33323;52.124;6.018;2023-05-29T04:00:57;8.40;99.90
47600;DHT22;33323;52.124;6.018;2023-05-29T04:03:26;8.50;99.90
47600;DHT22;33323;52.124;6.018;2023-05-29T04:05:53;8.60;99.90
47600;DHT22;33323;52.124;6.018;2023-05-29T04:08:23;8.60;99.90
47600;DHT22;33323;52.124;6.018;2023-05-29T04:10:50;8.70;99.90
47600;DHT22;33323;52.124;6.018;2023-05-29T04:13:21;8.70;99.90
47600;DHT22;33323;52.124;6.018;2023-05-29T04:15:48;8.80;99.90
47600;DHT22;33323;52.124;6.018;2023-05-29T04:18:16;8.80;99.90
47600;DHT22;33323;52.124;6.018;2023-05-29T04:20:43;9.00;99.90
47600;DHT22;33323;52.124;6.018;2023-05-29T04:23:14;9.10;99.90
47600;DHT22;33323;52.124;6.018;2023-05-29T04:25:42;9.40;99.90
47600;DHT22;33323;52.124;6.018;2023-05-29T04:28:12;9.50;99.90
47600;DHT22;33323;52.124;6.018;2023-05-29T04:30:39;9.60;99.90
47600;DHT22;33323;52.124;6.018;2023-05-29T04:33:07;9.60;99.90
47600;DHT22;33323;52.124;6.018;2023-05-29T04:35:36;9.70;99.90
47600;DHT22;33323;52.124;6.018;2023-05-29T04:38:07;9.90;99.90
47600;DHT22;33323;52.124;6.018;2023-05-29T04:40:35;9.90;99.90
47600;DHT22;33323;52.124;6.018;2023-05-29T04:43:03;9.90;99.90
47600;DHT22;33323;52.124;6.018;2023-05-29T04:45:56;9.90;99.90
47600;DHT22;33323;52.124;6.018;2023-05-29T04:48:24;10.10;99.90
47600;DHT22;33323;52.124;6.018;2023-05-29T04:50:52;10.20;99.90
47600;DHT22;33323;52.124;6.018;2023-05-29T04:53:19;10.30;99.90
47600;DHT22;33323;52.124;6.018;2023-05-29T04:55:47;10.50;99.90
47600;DHT22;33323;52.124;6.018;2023-05-29T04:58:15;10.50;99.90
47600;DHT22;33323;52.124;6.018;2023-05-29T05:00:42;10.70;99.90
47600;DHT22;33323;52.124;6.018;2023-05-29T05:03:10;10.70;99.90
47600;DHT22;33323;52.124;6.018;2023-05-29T05:05:37;10.70;99.90
47600;DHT22;33323;52.124;6.018;2023-05-29T05:08:06;10.70;99.90
47600;DHT22;33323;52.124;6.018;2023-05-29T05:10:33;10.70;99.90
47600;DHT22;33323;52.124;6.018;2023-05-29T05:13:00;10.80;99.90
47600;DHT22;33323;52.124;6.018;2023-05-29T05:15:30;11.10;99.90
47600;DHT22;33323;52.124;6.018;2023-05-29T05:17:58;11.20;99.90
47600;DHT22;33323;52.124;6.018;2023-05-29T05:20:25;11.20;99.90
47600;DHT22;33323;52.124;6.018;2023-05-29T05:22:57;11.30;99.90
47600;DHT22;33323;52.124;6.018;2023-05-29T05:25:27;11.30;99.90
47600;DHT22;33323;52.124;6.018;2023-05-29T05:27:54;11.60;99.90
47600;DHT22;33323;52.124;6.018;2023-05-29T05:30:23;11.90;99.90
47600;DHT22;33323;52.124;6.018;2023-05-29T05:32:50;11.90;99.90
47600;DHT22;33323;52.124;6.018;2023-05-29T05:35:17;11.90;99.90
47600;DHT22;33323;52.124;6.018;2023-05-29T05:37:46;11.90;99.90
47600;DHT22;33323;52.124;6.018;2023-05-29T05:40:13;12.00;99.90
47600;DHT22;33323;52.124;6.018;2023-05-29T05:42:50;11.80;99.90
47600;DHT22;33323;52.124;6.018;2023-05-29T05:45:23;12.20;99.90
47600;DHT22;33323;52.124;6.018;2023-05-29T05:47:50;12.50;99.90
47600;DHT22;33323;52.124;6.018;2023-05-29T05:50:21;12.40;99.90
47600;DHT22;33323;52.124;6.018;2023-05-29T05:52:49;12.50;99.90
47600;DHT22;33323;52.124;6.018;2023-05-29T05:55:17;12.60;99.90
47600;DHT22;33323;52.124;6.018;2023-05-29T05:57:44;12.70;99.90
47600;DHT22;33323;52.124;6.018;2023-05-29T06:00:13;12.90;99.90
47600;DHT22;33323;52.124;6.018;2023-05-29T06:02:43;12.90;99.90
47600;DHT22;33323;52.124;6.018;2023-05-29T06:05:20;13.20;99.90
47600;DHT22;33323;52.124;6.018;2023-05-29T06:07:47;13.00;99.90
47600;DHT22;33323;52.124;6.018;2023-05-29T06:10:14;13.40;99.90
47600;DHT22;33323;52.124;6.018;2023-05-29T06:12:41;13.30;99.90
47600;DHT22;33323;52.124;6.018;2023-05-29T06:15:18;13.30;99.90
47600;DHT22;33323;52.124;6.018;2023-05-29T06:17:45;13.60;99.90
47600;DHT22;33323;52.124;6.018;2023-05-29T06:20:14;14.10;99.90
47600;DHT22;33323;52.124;6.018;2023-05-29T06:22:41;13.70;99.90
47600;DHT22;33323;52.124;6.018;2023-05-29T06:25:09;13.60;99.90
47600;DHT22;33323;52.124;6.018;2023-05-29T06:27:36;13.90;99.90
47600;DHT22;33323;52.124;6.018;2023-05-29T06:30:04;13.90;99.90
47600;DHT22;33323;52.124;6.018;2023-05-29T06:32:32;13.80;99.90
47600;DHT22;33323;52.124;6.018;2023-05-29T06:34:59;14.20;99.90
47600;DHT22;33323;52.124;6.018;2023-05-29T06:37:28;14.00;99.90
47600;DHT22;33323;52.124;6.018;2023-05-29T06:39:55;14.10;99.90
47600;DHT22;33323;52.124;6.018;2023-05-29T06:42:23;14.20;99.90
47600;DHT22;33323;52.124;6.018;2023-05-29T06:44:57;14.60;99.90
47600;DHT22;33323;52.124;6.018;2023-05-29T06:47:24;14.50;99.90
47600;DHT22;33323;52.124;6.018;2023-05-29T06:49:51;14.30;99.90
47600;DHT22;33323;52.124;6.018;2023-05-29T06:52:18;14.20;99.90
47600;DHT22;33323;52.124;6.018;2023-05-29T06:55:05;14.20;99.90
47600;DHT22;33323;52.124;6.018;2023-05-29T06:57:33;13.80;99.90
47600;DHT22;33323;52.124;6.018;2023-05-29T07:00:00;14.00;99.90
47600;DHT22;33323;52.124;6.018;2023-05-29T07:02:28;14.40;99.90
47600;DHT22;33323;52.124;6.018;2023-05-29T07:04:57;14.50;99.90
47600;DHT22;33323;52.124;6.018;2023-05-29T07:07:27;14.50;99.90
47600;DHT22;33323;52.124;6.018;2023-05-29T07:09:54;14.30;99.90
47600;DHT22;33323;52.124;6.018;2023-05-29T07:12:24;14.30;99.90
47600;DHT22;33323;52.124;6.018;2023-05-29T07:14:51;14.30;99.90
47600;DHT22;33323;52.124;6.018;2023-05-29T07:17:19;14.30;99.90
47600;DHT22;33323;52.124;6.018;2023-05-29T07:19:53;14.70;99.90
47600;DHT22;33323;52.124;6.018;2023-05-29T07:22:21;14.90;99.90
47600;DHT22;33323;52.124;6.018;2023-05-29T07:24:48;15.20;99.90
47600;DHT22;33323;52.124;6.018;2023-05-29T07:27:15;15.20;99.90
47600;DHT22;33323;52.124;6.018;2023-05-29T07:29:42;15.20;99.90
47600;DHT22;33323;52.124;6.018;2023-05-29T07:32:09;15.40;99.90
47600;DHT22;33323;52.124;6.018;2023-05-29T07:34:37;15.10;99.90
47600;DHT22;33323;52.124;6.018;2023-05-29T07:37:05;15.10;99.90
47600;DHT22;33323;52.124;6.018;2023-05-29T07:39:38;14.90;99.90
47600;DHT22;33323;52.124;6.018;2023-05-29T07:42:23;14.90;99.90
47600;DHT22;33323;52.124;6.018;2023-05-29T07:44:50;15.00;99.90
47600;DHT22;33323;52.124;6.018;2023-05-29T07:47:18;14.90;99.90
47600;DHT22;33323;52.124;6.018;2023-05-29T07:49:46;15.20;99.90
47600;DHT22;33323;52.124;6.018;2023-05-29T07:52:14;15.30;99.90
47600;DHT22;33323;52.124;6.018;2023-05-29T07:54:41;15.20;99.90
47600;DHT22;33323;52.124;6.018;2023-05-29T07:57:10;15.30;99.90
47600;DHT22;33323;52.124;6.018;2023-05-29T07:59:42;15.60;99.90
47600;DHT22;33323;52.124;6.018;2023-05-29T08:02:11;15.40;99.90
47600;DHT22;33323;52.124;6.018;2023-05-29T08:05:03;15.50;99.90
47600;DHT22;33323;52.124;6.018;2023-05-29T08:07:30;15.60;99.90
47600;DHT22;33323;52.124;6.018;2023-05-29T08:09:58;15.50;99.90
47600;DHT22;33323;52.124;6.018;2023-05-29T08:12:25;15.20;99.90
47600;DHT22;33323;52.124;6.018;2023-05-29T08:14:56;15.40;99.90
47600;DHT22;33323;52.124;6.018;2023-05-29T08:17:23;15.60;99.90
47600;DHT22;33323;52.124;6.018;2023-05-29T08:19:50;15.70;99.90
47600;DHT22;33323;52.124;6.018;2023-05-29T08:22:17;15.70;99.90
47600;DHT22;33323;52.124;6.018;2023-05-29T08:24:44;15.60;99.90
47600;DHT22;33323;52.124;6.018;2023-05-29T08:27:11;15.40;99.90
47600;DHT22;33323;52.124;6.018;2023-05-29T08:29:38;15.80;99.90
47600;DHT22;33323;52.124;6.018;2023-05-29T08:32:05;16.00;99.90
47600;DHT22;33323;52.124;6.018;2023-05-29T08:34:33;16.10;99.90
47600;DHT22;33323;52.124;6.018;2023-05-29T08:37:00;16.20;99.90
47600;DHT22;33323;52.124;6.018;2023-05-29T08:39:27;16.20;99.90
47600;DHT22;33323;52.124;6.018;2023-05-29T08:42:15;16.30;99.90
47600;DHT22;33323;52.124;6.018;2023-05-29T08:44:47;16.80;99.90
47600;DHT22;33323;52.124;6.018;2023-05-29T08:47:17;16.50;99.90
47600;DHT22;33323;52.124;6.018;2023-05-29T08:49:53;16.10;99.90
47600;DHT22;33323;52.124;6.018;2023-05-29T08:52:22;16.30;99.90
47600;DHT22;33323;52.124;6.018;2023-05-29T08:54:53;16.50;99.90
47600;DHT22;33323;52.124;6.018;2023-05-29T08:57:21;16.50;99.90
47600;DHT22;33323;52.124;6.018;2023-05-29T08:59:51;16.30;99.90
47600;DHT22;33323;52.124;6.018;2023-05-29T09:02:19;16.10;99.90
47600;DHT22;33323;52.124;6.018;2023-05-29T09:04:46;16.40;99.90
47600;DHT22;33323;52.124;6.018;2023-05-29T09:07:19;16.50;99.90
47600;DHT22;33323;52.124;6.018;2023-05-29T09:09:47;16.70;99.90
47600;DHT22;33323;52.124;6.018;2023-05-29T09:12:15;16.80;99.90
47600;DHT22;33323;52.124;6.018;2023-05-29T09:14:44;16.90;99.90
47600;DHT22;33323;52.124;6.018;2023-05-29T09:17:13;16.90;99.90
47600;DHT22;33323;52.124;6.018;2023-05-29T09:19:41;17.30;99.90
47600;DHT22;33323;52.124;6.018;2023-05-29T09:22:13;17.10;99.90
47600;DHT22;33323;52.124;6.018;2023-05-29T09:24:45;17.30;99.90
47600;DHT22;33323;52.124;6.018;2023-05-29T09:27:14;16.90;99.90
47600;DHT22;33323;52.124;6.018;2023-05-29T09:29:42;16.90;99.90
47600;DHT22;33323;52.124;6.018;2023-05-29T09:32:16;16.80;99.90
47600;DHT22;33323;52.124;6.018;2023-05-29T09:34:44;16.80;99.90
47600;DHT22;33323;52.124;6.018;2023-05-29T09:37:12;16.90;99.90
47600;DHT22;33323;52.124;6.018;2023-05-29T09:39:45;16.70;99.90
47600;DHT22;33323;52.124;6.018;2023-05-29T09:42:16;17.00;99.90
47600;DHT22;33323;52.124;6.018;2023-05-29T09:44:52;17.40;99.90
47600;DHT22;33323;52.124;6.018;2023-05-29T09:47:21;17.40;99.90
47600;DHT22;33323;52.124;6.018;2023-05-29T09:49:48;17.50;99.90
47600;DHT22;33323;52.124;6.018;2023-05-29T09:52:21;17.40;99.90
47600;DHT22;33323;52.124;6.018;2023-05-29T09:54:50;17.40;99.90
47600;DHT22;33323;52.124;6.018;2023-05-29T09:57:17;17.40;99.90
47600;DHT22;33323;52.124;6.018;2023-05-29T09:59:45;17.60;99.90
47600;DHT22;33323;52.124;6.018;2023-05-29T10:02:15;17.20;99.90
47600;DHT22;33323;52.124;6.018;2023-05-29T10:04:43;17.30;99.90
47600;DHT22;33323;52.124;6.018;2023-05-29T10:07:25;17.50;99.90
47600;DHT22;33323;52.124;6.018;2023-05-29T10:10:01;17.40;99.90
47600;DHT22;33323;52.124;6.018;2023-05-29T10:12:32;17.50;99.90
47600;DHT22;33323;52.124;6.018;2023-05-29T10:15:10;17.50;99.90
47600;DHT22;33323;52.124;6.018;2023-05-29T10:17:39;17.90;99.90
47600;DHT22;33323;52.124;6.018;2023-05-29T10:20:14;17.90;99.90
47600;DHT22;33323;52.124;6.018;2023-05-29T10:22:45;18.30;99.90
47600;DHT22;33323;52.124;6.018;2023-05-29T10:25:18;18.50;99.90
47600;DHT22;33323;52.124;6.018;2023-05-29T10:27:48;18.50;99.90
47600;DHT22;33323;52.124;6.018;2023-05-29T10:30:36;17.70;99.90
47600;DHT22;33323;52.124;6.018;2023-05-29T10:33:32;17.70;99.90
47600;DHT22;33323;52.124;6.018;2023-05-29T10:36:22;17.90;99.90
47600;DHT22;33323;52.124;6.018;2023-05-29T10:38:53;18.00;99.90
47600;DHT22;33323;52.124;6.018;2023-05-29T10:43:56;17.90;99.90
47600;DHT22;33323;52.124;6.018;2023-05-29T10:49:16;17.70;99.90
47600;DHT22;33323;52.124;6.018;2023-05-29T10:51:44;17.80;99.90
47600;DHT22;33323;52.124;6.018;2023-05-29T10:54:11;17.90;99.90
47600;DHT22;33323;52.124;6.018;2023-05-29T10:56:40;18.00;99.90
47600;DHT22;33323;52.124;6.018;2023-05-29T10:59:10;18.30;99.90
47600;DHT22;33323;52.124;6.018;2023-05-29T11:01:40;18.50;99.90
47600;DHT22;33323;52.124;6.018;2023-05-29T11:04:25;18.30;99.90
47600;DHT22;33323;52.124;6.018;2023-05-29T11:06:53;18.20;99.90
47600;DHT22;33323;52.124;6.018;2023-05-29T11:09:34;18.30;99.90
47600;DHT22;33323;52.124;6.018;2023-05-29T11:15:11;18.10;99.90
47600;DHT22;33323;52.124;6.018;2023-05-29T11:17:45;18.50;99.90
47600;DHT22;33323;52.124;6.018;2023-05-29T11:25:27;18.50;99.90
47600;DHT22;33323;52.124;6.018;2023-05-29T11:27:55;18.20;99.90
47600;DHT22;33323;52.124;6.018;2023-05-29T11:30:22;18.30;99.90
47600;DHT22;33323;52.124;6.018;2023-05-29T11:32:49;18.30;99.90
47600;DHT22;33323;52.124;6.018;2023-05-29T11:35:22;18.50;99.90
47600;DHT22;33323;52.124;6.018;2023-05-29T11:37:49;18.20;99.90
47600;DHT22;33323;52.124;6.018;2023-05-29T11:40:18;18.30;99.90
47600;DHT22;33323;52.124;6.018;2023-05-29T11:42:46;18.40;99.90
47600;DHT22;33323;52.124;6.018;2023-05-29T11:45:16;18.60;99.90
47600;DHT22;33323;52.124;6.018;2023-05-29T11:47:56;18.60;99.90
47600;DHT22;33323;52.124;6.018;2023-05-29T11:50:26;18.50;99.90
47600;DHT22;33323;52.124;6.018;2023-05-29T11:52:56;18.60;99.90
47600;DHT22;33323;52.124;6.018;2023-05-29T11:55:24;18.40;99.90
47600;DHT22;33323;52.124;6.018;2023-05-29T11:58:03;18.50;99.90
47600;DHT22;33323;52.124;6.018;2023-05-29T12:00:38;18.60;99.90
47600;DHT22;33323;52.124;6.018;2023-05-29T12:03:06;18.80;99.90
47600;DHT22;33323;52.124;6.018;2023-05-29T12:05:49;18.80;99.90
47600;DHT22;33323;52.124;6.018;2023-05-29T12:08:23;18.90;99.90
47600;DHT22;33323;52.124;6.018;2023-05-29T12:10:52;18.90;99.90
47600;DHT22;33323;52.124;6.018;2023-05-29T12:13:20;18.90;99.90
47600;DHT22;33323;52.124;6.018;2023-05-29T12:15:49;18.70;99.90
47600;DHT22;33323;52.124;6.018;2023-05-29T12:18:20;18.40;99.90
47600;DHT22;33323;52.124;6.018;2023-05-29T12:20:48;18.40;99.90
47600;DHT22;33323;52.124;6.018;2023-05-29T12:23:17;18.40;99.90
47600;DHT22;33323;52.124;6.018;2023-05-29T12:25:47;18.40;99.90
47600;DHT22;33323;52.124;6.018;2023-05-29T12:28:17;18.60;99.90
47600;DHT22;33323;52.124;6.018;2023-05-29T12:30:48;18.60;99.90
47600;DHT22;33323;52.124;6.018;2023-05-29T12:33:32;18.50;99.90
47600;DHT22;33323;52.124;6.018;2023-05-29T12:36:07;18.50;99.90
47600;DHT22;33323;52.124;6.018;2023-05-29T12:38:50;18.40;99.90
47600;DHT22;33323;52.124;6.018;2023-05-29T12:41:28;18.30;99.90
47600;DHT22;33323;52.124;6.018;2023-05-29T12:43:57;18.30;99.90
47600;DHT22;33323;52.124;6.018;2023-05-29T12:46:25;18.40;99.90
47600;DHT22;33323;52.124;6.018;2023-05-29T12:48:54;18.50;99.90
47600;DHT22;33323;52.124;6.018;2023-05-29T12:51:26;18.70;99.90
47600;DHT22;33323;52.124;6.018;2023-05-29T12:53:53;18.90;99.90
47600;DHT22;33323;52.124;6.018;2023-05-29T12:56:22;19.10;99.90
47600;DHT22;33323;52.124;6.018;2023-05-29T12:58:50;19.20;99.90
47600;DHT22;33323;52.124;6.018;2023-05-29T13:01:18;19.00;99.90
47600;DHT22;33323;52.124;6.018;2023-05-29T13:03:48;19.00;99.90
47600;DHT22;33323;52.124;6.018;2023-05-29T13:06:16;19.00;99.90
47600;DHT22;33323;52.124;6.018;2023-05-29T13:08:44;18.80;99.90
47600;DHT22;33323;52.124;6.018;2023-05-29T13:11:11;18.60;99.90
47600;DHT22;33323;52.124;6.018;2023-05-29T13:13:38;18.70;99.90
47600;DHT22;33323;52.124;6.018;2023-05-29T13:16:06;19.10;99.90
47600;DHT22;33323;52.124;6.018;2023-05-29T13:18:33;19.20;99.90
47600;DHT22;33323;52.124;6.018;2023-05-29T13:21:01;18.90;99.90
47600;DHT22;33323;52.124;6.018;2023-05-29T13:23:28;18.60;99.90
47600;DHT22;33323;52.124;6.018;2023-05-29T13:25:56;18.60;99.90
47600;DHT22;33323;52.124;6.018;2023-05-29T13:28:23;18.90;99.90
47600;DHT22;33323;52.124;6.018;2023-05-29T13:30:51;19.20;99.90
47600;DHT22;33323;52.124;6.018;2023-05-29T13:33:18;19.10;99.90
47600;DHT22;33323;52.124;6.018;2023-05-29T13:35:45;18.90;99.90
47600;DHT22;33323;52.124;6.018;2023-05-29T13:38:12;19.00;99.90
47600;DHT22;33323;52.124;6.018;2023-05-29T13:40:40;19.00;99.90
47600;DHT22;33323;52.124;6.018;2023-05-29T13:43:07;19.10;99.90
47600;DHT22;33323;52.124;6.018;2023-05-29T13:45:34;19.10;99.90
47600;DHT22;33323;52.124;6.018;2023-05-29T13:48:01;19.00;99.90
47600;DHT22;33323;52.124;6.018;2023-05-29T13:50:29;18.80;99.90
47600;DHT22;33323;52.124;6.018;2023-05-29T13:52:56;18.70;99.90
47600;DHT22;33323;52.124;6.018;2023-05-29T13:55:23;18.70;99.90
47600;DHT22;33323;52.124;6.018;2023-05-29T13:57:51;19.10;99.90
47600;DHT22;33323;52.124;6.018;2023-05-29T14:00:19;19.30;99.90
47600;DHT22;33323;52.124;6.018;2023-05-29T14:02:46;19.20;99.90
47600;DHT22;33323;52.124;6.018;2023-05-29T14:05:14;19.30;99.90
47600;DHT22;33323;52.124;6.018;2023-05-29T14:07:41;19.40;99.90
47600;DHT22;33323;52.124;6.018;2023-05-29T14:10:08;19.40;99.90
47600;DHT22;33323;52.124;6.018;2023-05-29T14:12:38;19.50;99.90
47600;DHT22;33323;52.124;6.018;2023-05-29T14:15:06;19.40;99.90
47600;DHT22;33323;52.124;6.018;2023-05-29T14:17:34;19.20;99.90
47600;DHT22;33323;52.124;6.018;2023-05-29T14:20:01;19.10;99.90
47600;DHT22;33323;52.124;6.018;2023-05-29T14:22:31;19.30;99.90
47600;DHT22;33323;52.124;6.018;2023-05-29T14:24:58;19.20;99.90
47600;DHT22;33323;52.124;6.018;2023-05-29T14:27:26;19.40;99.90
47600;DHT22;33323;52.124;6.018;2023-05-29T14:29:54;19.50;99.90
47600;DHT22;33323;52.124;6.018;2023-05-29T14:32:21;19.30;99.90
47600;DHT22;33323;52.124;6.018;2023-05-29T14:34:49;18.90;99.90
47600;DHT22;33323;52.124;6.018;2023-05-29T14:37:16;18.90;99.90
47600;DHT22;33323;52.124;6.018;2023-05-29T14:39:43;18.90;99.90
47600;DHT22;33323;52.124;6.018;2023-05-29T14:42:11;18.90;99.90
47600;DHT22;33323;52.124;6.018;2023-05-29T14:44:38;18.90;99.90
47600;DHT22;33323;52.124;6.018;2023-05-29T14:47:05;19.20;99.90
47600;DHT22;33323;52.124;6.018;2023-05-29T14:49:32;19.20;99.90
47600;DHT22;33323;52.124;6.018;2023-05-29T14:52:00;19.10;99.90
47600;DHT22;33323;52.124;6.018;2023-05-29T14:54:30;19.00;99.90
47600;DHT22;33323;52.124;6.018;2023-05-29T14:56:57;19.20;99.90
47600;DHT22;33323;52.124;6.018;2023-05-29T14:59:24;19.30;99.90
47600;DHT22;33323;52.124;6.018;2023-05-29T15:01:52;19.20;99.90
47600;DHT22;33323;52.124;6.018;2023-05-29T15:04:20;19.10;99.90
47600;DHT22;33323;52.124;6.018;2023-05-29T15:06:47;18.90;99.90
47600;DHT22;33323;52.124;6.018;2023-05-29T15:09:28;18.90;99.90
47600;DHT22;33323;52.124;6.018;2023-05-29T15:11:55;19.10;99.90
47600;DHT22;33323;52.124;6.018;2023-05-29T15:14:23;19.00;99.90
47600;DHT22;33323;52.124;6.018;2023-05-29T15:16:50;19.20;99.90
47600;DHT22;33323;52.124;6.018;2023-05-29T15:19:18;19.20;99.90
47600;DHT22;33323;52.124;6.018;2023-05-29T15:21:45;19.00;99.90
47600;DHT22;33323;52.124;6.018;2023-05-29T15:24:12;18.80;99.90
47600;DHT22;33323;52.124;6.018;2023-05-29T15:26:40;18.90;99.90
47600;DHT22;33323;52.124;6.018;2023-05-29T15:29:07;18.70;99.90
47600;DHT22;33323;52.124;6.018;2023-05-29T15:31:34;18.70;99.90
47600;DHT22;33323;52.124;6.018;2023-05-29T15:34:02;18.70;99.90
47600;DHT22;33323;52.124;6.018;2023-05-29T15:36:29;18.70;99.90
47600;DHT22;33323;52.124;6.018;2023-05-29T15:38:56;18.60;99.90
47600;DHT22;33323;52.124;6.018;2023-05-29T15:41:24;18.60;99.90
47600;DHT22;33323;52.124;6.018;2023-05-29T15:43:55;18.50;99.90
47600;DHT22;33323;52.124;6.018;2023-05-29T15:46:26;18.50;99.90
47600;DHT22;33323;52.124;6.018;2023-05-29T15:48:54;18.50;99.90
47600;DHT22;33323;52.124;6.018;2023-05-29T15:51:21;18.50;99.90
47600;DHT22;33323;52.124;6.018;2023-05-29T15:53:48;18.40;99.90
47600;DHT22;33323;52.124;6.018;2023-05-29T15:56:16;18.40;99.90
47600;DHT22;33323;52.124;6.018;2023-05-29T15:58:43;18.40;99.90
47600;DHT22;33323;52.124;6.018;2023-05-29T16:01:10;18.50;99.90
47600;DHT22;33323;52.124;6.018;2023-05-29T16:03:38;18.50;99.90
47600;DHT22;33323;52.124;6.018;2023-05-29T16:06:05;18.60;99.90
47600;DHT22;33323;52.124;6.018;2023-05-29T16:08:33;18.60;99.90